Latest Weather Observations for Esperance Harbour

IDW60801

Issued at 8:02 pm WST Friday 3 July 2015 (issued every 30 minutes, with the page automatically refreshed every 10 minutes)

About weather observations | Map of weather stations | Latest weather observations for WA | Other Formats
Station Details ID: 109504 Name: ESPERANCE NTC AWS Lat: -33.87 Lon: 121.90 Height: 0.0 m
Data from the previous 72 hours. | See also: Recent months for locations in Western Australia
Date/Time
WST
Temp
°C
App
Temp
°C
Dew
Point
Rel
Hum
%
Delta-T
°C
Wind Press
QNH
hPa
Press
MSL
hPa
Rain
since 9 am
mm
Dir
 
Spd
km/h
Gust
km/h
Spd
kts
Gust
kts
03/08:00pm 15.4 - - - - - - - - - 1021.7 1021.6 -
03/07:30pm 15.5 - - - - - - - - - 1021.6 1021.5 -
03/07:00pm 15.6 - - - - - - - - - 1021.5 1021.4 -
03/06:30pm 15.9 - - - - - - - - - 1021.3 1021.2 -
03/06:00pm 15.9 - - - - - - - - - 1021.2 1021.1 -
03/05:30pm 16.5 - - - - - - - - - 1020.9 1020.8 -
03/05:00pm 17.5 - - - - - - - - - 1020.6 1020.6 -
03/04:30pm 18.3 - - - - - - - - - 1020.5 1020.5 -
03/04:00pm 18.5 - - - - - - - - - 1020.4 1020.4 -
03/03:30pm 19.0 - - - - - - - - - 1020.3 1020.3 -
03/03:00pm 19.3 - - - - - - - - - 1020.0 1020.0 -
03/02:30pm 19.3 - - - - - - - - - 1019.9 1019.9 -
03/02:00pm 19.9 - - - - - - - - - 1019.8 1019.8 -
03/01:30pm 20.1 - - - - - - - - - 1020.0 1020.0 -
03/01:00pm 19.9 - - - - - - - - - 1020.3 1020.3 -
03/12:30pm 19.4 - - - - - - - - - 1020.5 1020.5 -
03/12:00pm 18.9 - - - - - - - - - 1020.9 1020.8 -
03/11:30am 18.9 - - - - - - - - - 1021.4 1021.3 -
03/11:00am 18.1 - - - - - - - - - 1021.7 1021.6 -
03/10:30am 17.6 - - - - - - - - - 1021.9 1021.8 -
03/10:00am 16.5 - - - - - - - - - 1022.2 1022.1 -
03/09:30am 15.3 - - - - - - - - - 1022.4 1022.3 -
03/09:00am 14.0 - - - - - - - - - 1022.5 1022.4 -
03/08:30am 13.8 - - - - - - - - - 1022.4 1022.3 -
03/08:00am 13.4 - - - - - - - - - 1022.5 1022.4 -
03/07:30am 13.7 - - - - - - - - - 1022.3 1022.2 -
03/07:00am 13.9 - - - - - - - - - 1022.2 1022.1 -
03/06:30am 14.0 - - - - - - - - - 1022.0 1021.9 -
03/06:00am 13.7 - - - - - - - - - 1022.0 1021.9 -
03/05:30am 13.7 - - - - - - - - - 1021.9 1021.8 -
03/05:00am 13.9 - - - - - - - - - 1021.8 1021.7 -
03/04:30am 14.0 - - - - - - - - - 1021.9 1021.8 -
03/04:00am 13.9 - - - - - - - - - 1022.0 1021.9 -
03/03:30am 13.9 - - - - - - - - - 1022.2 1022.1 -
03/03:00am 13.8 - - - - - - - - - 1022.3 1022.2 -
03/02:30am 13.9 - - - - - - - - - 1022.3 1022.2 -
03/02:00am 14.2 - - - - - - - - - 1022.6 1022.5 -
03/01:30am 13.8 - - - - - - - - - 1023.0 1022.9 -
03/01:00am 13.8 - - - - - - - - - 1023.1 1023.0 -
03/12:30am 13.6 - - - - - - - - - 1023.3 1023.2 -
03/12:00am 13.6 - - - - - - - - - 1023.4 1023.3 -
 
Date/Time
WST
Temp
°C
App
Temp
°C
Dew
Point
Rel
Hum
%
Delta-T
°C
Wind Press
QNH
hPa
Press
MSL
hPa
Rain
since 9 am
mm
Dir
 
Spd
km/h
Gust
km/h
Spd
kts
Gust
kts
02/11:30pm 13.5 - - - - - - - - - 1023.8 1023.7 -
02/11:00pm 13.7 - - - - - - - - - 1024.1 1024.0 -
02/10:30pm 13.6 - - - - - - - - - 1024.3 1024.2 -
02/10:00pm 13.6 - - - - - - - - - 1024.6 1024.5 -
02/09:30pm 13.8 - - - - - - - - - 1024.6 1024.5 -
02/09:00pm 14.1 - - - - - - - - - 1024.7 1024.6 -
02/08:30pm 14.3 - - - - - - - - - 1024.7 1024.6 -
02/08:00pm 14.6 - - - - - - - - - 1024.6 1024.5 -
02/07:30pm 15.7 - - - - - - - - - 1024.3 1024.2 -
02/07:00pm 16.0 - - - - - - - - - 1024.2 1024.1 -
02/06:30pm 15.6 - - - - - - - - - 1024.1 1024.0 -
02/06:00pm 16.0 - - - - - - - - - 1023.9 1023.8 -
02/05:30pm 16.1 - - - - - - - - - 1023.3 1023.2 -
02/05:00pm 15.6 - - - - - - - - - 1023.7 1023.6 -
02/04:30pm 15.1 - - - - - - - - - 1023.5 1023.4 -
02/04:00pm 15.4 - - - - - - - - - 1023.7 1023.6 -
02/03:30pm 15.4 - - - - - - - - - 1024.1 1024.0 -
02/03:00pm 15.9 - - - - - - - - - 1024.2 1024.1 -
02/02:30pm 16.6 - - - - - - - - - 1024.5 1024.4 -
02/02:00pm 17.1 - - - - - - - - - 1024.7 1024.6 -
02/01:30pm 17.4 - - - - - - - - - 1025.0 1024.9 -
02/01:00pm 17.2 - - - - - - - - - 1025.1 1025.0 -
02/12:30pm 17.3 - - - - - - - - - 1025.0 1024.9 -
02/12:00pm 17.0 - - - - - - - - - 1025.1 1025.0 -
02/11:30am 16.6 - - - - - - - - - 1025.5 1025.4 -
02/11:00am 17.0 - - - - - - - - - 1026.0 1025.9 -
02/10:30am 17.1 - - - - - - - - - 1026.1 1026.0 -
02/10:00am 16.1 - - - - - - - - - 1026.2 1026.1 -
02/09:30am 15.1 - - - - - - - - - 1026.1 1026.0 -
02/09:00am 14.3 - - - - - - - - - 1025.9 1025.8 -
02/08:30am 14.2 - - - - - - - - - 1025.9 1025.8 -
02/08:00am 14.3 - - - - - - - - - 1025.9 1025.8 -
02/07:30am 14.6 - - - - - - - - - 1025.4 1025.3 -
02/07:00am 15.2 - - - - - - - - - 1025.0 1024.9 -
02/06:30am 15.0 - - - - - - - - - 1024.6 1024.5 -
02/06:00am 15.0 - - - - - - - - - 1024.4 1024.3 -
02/05:30am 15.2 - - - - - - - - - 1024.5 1024.4 -
02/05:00am 15.2 - - - - - - - - - 1024.3 1024.2 -
02/04:30am 15.1 - - - - - - - - - 1024.4 1024.3 -
02/04:00am 14.5 - - - - - - - - - 1024.4 1024.3 -
02/03:30am 13.9 - - - - - - - - - 1024.3 1024.2 -
02/03:00am 13.7 - - - - - - - - - 1024.4 1024.3 -
02/02:30am 13.3 - - - - - - - - - 1024.6 1024.5 -
02/02:00am 13.7 - - - - - - - - - 1025.0 1024.9 -
02/01:30am 14.2 - - - - - - - - - 1025.2 1025.1 -
02/01:00am 14.5 - - - - - - - - - 1025.5 1025.4 -
02/12:30am 14.1 - - - - - - - - - 1025.7 1025.6 -
02/12:00am 14.7 - - - - - - - - - 1025.2 1025.1 -
 
Date/Time
WST
Temp
°C
App
Temp
°C
Dew
Point
Rel
Hum
%
Delta-T
°C
Wind Press
QNH
hPa
Press
MSL
hPa
Rain
since 9 am
mm
Dir
 
Spd
km/h
Gust
km/h
Spd
kts
Gust
kts
01/11:30pm 14.9 - - - - - - - - - 1025.4 1025.3 -
01/11:00pm 14.7 - - - - - - - - - 1025.7 1025.6 -
01/10:30pm 14.5 - - - - - - - - - 1026.1 1026.0 -
01/10:00pm 14.3 - - - - - - - - - 1026.0 1025.9 -
01/09:30pm 15.0 - - - - - - - - - 1026.0 1025.9 -
01/09:00pm 15.1 - - - - - - - - - 1026.2 1026.1 -
01/08:30pm 15.8 - - - - - - - - - 1026.3 1026.2 -
01/08:00pm 16.4 - - - - - - - - - 1026.1 1026.0 -
01/07:30pm 17.1 - - - - - - - - - 1026.0 1025.9 -
01/07:00pm 16.8 - - - - - - - - - 1025.9 1025.8 -
01/06:30pm 17.1 - - - - - - - - - 1025.4 1025.3 -
01/06:00pm 17.1 - - - - - - - - - 1025.2 1025.1 -
01/05:30pm 16.9 - - - - - - - - - 1025.0 1024.9 -
01/05:00pm 17.6 - - - - - - - - - 1024.8 1024.7 -
01/04:30pm 18.3 - - - - - - - - - 1024.7 1024.6 -
01/04:00pm 19.5 - - - - - - - - - 1024.8 1024.7 -
01/03:30pm 19.8 - - - - - - - - - 1024.7 1024.6 -
01/03:00pm 19.5 - - - - - - - - - 1024.6 1024.5 -
01/02:30pm 20.0 - - - - - - - - - 1024.5 1024.4 -
01/02:00pm 21.1 - - - - - - - - - 1024.3 1024.2 -
01/01:30pm 20.3 - - - - - - - - - 1024.4 1024.3 -
01/01:00pm 19.9 - - - - - - - - - 1024.5 1024.4 -
01/12:30pm 19.3 - - - - - - - - - 1024.6 1024.5 -
01/12:00pm 18.9 - - - - - - - - - 1025.2 1025.1 -
01/11:30am 18.7 - - - - - - - - - 1025.7 1025.6 -
01/11:00am 17.8 - - - - - - - - - 1026.0 1025.9 -
01/10:30am 17.0 - - - - - - - - - 1026.2 1026.1 -
01/10:00am 16.5 - - - - - - - - - 1026.6 1026.5 -
01/09:30am 15.2 - - - - - - - - - 1026.6 1026.5 -
01/09:00am 14.6 - - - - - - - - - 1026.5 1026.4 -
01/08:30am 14.4 - - - - - - - - - 1026.0 1025.9 -
01/08:00am 14.1 - - - - - - - - - 1026.2 1026.1 -
01/07:30am 13.8 - - - - - - - - - 1025.8 1025.7 -
01/07:00am 13.8 - - - - - - - - - 1025.1 1025.0 -
01/06:30am 13.7 - - - - - - - - - 1024.8 1024.7 -
01/06:00am 13.8 - - - - - - - - - 1024.6 1024.5 -
01/05:30am 13.8 - - - - - - - - - 1024.4 1024.3 -
01/05:00am 13.8 - - - - - - - - - 1024.5 1024.4 -
01/04:30am 13.8 - - - - - - - - - 1024.2 1024.1 -
01/04:00am 13.9 - - - - - - - - - 1024.2 1024.1 -
01/03:30am 14.3 - - - - - - - - - 1024.2 1024.1 -
01/03:00am 14.3 - - - - - - - - - 1024.3 1024.2 -
01/02:30am 14.3 - - - - - - - - - 1024.7 1024.6 -
01/02:00am 14.0 - - - - - - - - - 1024.6 1024.5 -
01/01:30am 14.5 - - - - - - - - - 1024.1 1024.0 -
01/01:00am 14.2 - - - - - - - - - 1024.6 1024.5 -
01/12:30am 13.9 - - - - - - - - - 1024.5 1024.4 -
01/12:00am 14.3 - - - - - - - - - 1024.6 1024.5 -
 
Date/Time
WST
Temp
°C
App
Temp
°C
Dew
Point
Rel
Hum
%
Delta-T
°C
Wind Press
QNH
hPa
Press
MSL
hPa
Rain
since 9 am
mm
Dir
 
Spd
km/h
Gust
km/h
Spd
kts
Gust
kts
30/11:30pm 14.3 - - - - - - - - - 1024.8 1024.7 -
30/11:00pm 15.0 - - - - - - - - - 1024.7 1024.6 -
30/10:30pm 15.1 - - - - - - - - - 1025.0 1024.9 -
30/10:00pm 15.0 - - - - - - - - - 1024.8 1024.7 -
30/09:30pm 15.0 - - - - - - - - - 1025.0 1024.9 -
30/09:00pm 14.7 - - - - - - - - - 1025.2 1025.1 -
30/08:30pm 15.0 - - - - - - - - - 1025.2 1025.1 -

Other Formats:

Comma delimited format used in spreadsheet applications
http://www.bom.gov.au/fwo/IDW60801/IDW60801.95648.axf

JavaScript Object Notation format (JSON) in row-major order
http://www.bom.gov.au/fwo/IDW60801/IDW60801.95648.json